sensor_id;sensor_type;location;lat;lon;timestamp;P1;durP1;ratioP1;P2;durP2;ratioP2
9906;SDS011;4992;51.628;6.664;2023-12-20T00:02:13;24.07;;;12.93;;
9906;SDS011;4992;51.628;6.664;2023-12-20T00:04:39;26.53;;;14.40;;
9906;SDS011;4992;51.628;6.664;2023-12-20T00:07:04;24.97;;;13.67;;
9906;SDS011;4992;51.628;6.664;2023-12-20T00:09:30;29.40;;;14.40;;
9906;SDS011;4992;51.628;6.664;2023-12-20T00:11:55;25.17;;;13.93;;
9906;SDS011;4992;51.628;6.664;2023-12-20T00:14:21;28.73;;;14.67;;
9906;SDS011;4992;51.628;6.664;2023-12-20T00:16:47;28.97;;;13.53;;
9906;SDS011;4992;51.628;6.664;2023-12-20T00:19:13;28.43;;;13.70;;
9906;SDS011;4992;51.628;6.664;2023-12-20T00:21:38;26.00;;;12.30;;
9906;SDS011;4992;51.628;6.664;2023-12-20T00:24:04;28.43;;;12.07;;
9906;SDS011;4992;51.628;6.664;2023-12-20T00:26:30;27.97;;;12.50;;
9906;SDS011;4992;51.628;6.664;2023-12-20T00:28:55;27.97;;;12.30;;
9906;SDS011;4992;51.628;6.664;2023-12-20T00:31:21;27.73;;;13.57;;
9906;SDS011;4992;51.628;6.664;2023-12-20T00:33:46;25.97;;;12.00;;
9906;SDS011;4992;51.628;6.664;2023-12-20T00:36:12;25.73;;;11.83;;
9906;SDS011;4992;51.628;6.664;2023-12-20T00:38:37;26.10;;;11.07;;
9906;SDS011;4992;51.628;6.664;2023-12-20T00:41:03;27.80;;;12.17;;
9906;SDS011;4992;51.628;6.664;2023-12-20T00:43:29;26.23;;;11.30;;
9906;SDS011;4992;51.628;6.664;2023-12-20T00:45:54;26.50;;;11.17;;
9906;SDS011;4992;51.628;6.664;2023-12-20T00:48:20;27.83;;;11.57;;
9906;SDS011;4992;51.628;6.664;2023-12-20T00:50:46;29.60;;;11.87;;
9906;SDS011;4992;51.628;6.664;2023-12-20T00:53:11;30.63;;;12.37;;
9906;SDS011;4992;51.628;6.664;2023-12-20T00:55:37;22.67;;;12.73;;
9906;SDS011;4992;51.628;6.664;2023-12-20T00:58:03;31.27;;;13.07;;
9906;SDS011;4992;51.628;6.664;2023-12-20T01:00:28;33.30;;;12.00;;
9906;SDS011;4992;51.628;6.664;2023-12-20T01:02:54;37.33;;;13.63;;
9906;SDS011;4992;51.628;6.664;2023-12-20T01:05:19;23.87;;;11.53;;
9906;SDS011;4992;51.628;6.664;2023-12-20T01:07:48;27.37;;;10.77;;
9906;SDS011;4992;51.628;6.664;2023-12-20T01:10:14;32.40;;;11.43;;
9906;SDS011;4992;51.628;6.664;2023-12-20T01:12:39;26.07;;;10.20;;
9906;SDS011;4992;51.628;6.664;2023-12-20T01:15:05;25.27;;;8.97;;
9906;SDS011;4992;51.628;6.664;2023-12-20T01:17:31;24.17;;;9.20;;
9906;SDS011;4992;51.628;6.664;2023-12-20T01:19:56;27.83;;;9.53;;
9906;SDS011;4992;51.628;6.664;2023-12-20T01:22:23;21.17;;;8.43;;
9906;SDS011;4992;51.628;6.664;2023-12-20T01:24:48;26.87;;;9.63;;
9906;SDS011;4992;51.628;6.664;2023-12-20T01:27:14;21.57;;;9.60;;
9906;SDS011;4992;51.628;6.664;2023-12-20T01:29:39;25.43;;;8.90;;
9906;SDS011;4992;51.628;6.664;2023-12-20T01:32:05;26.93;;;10.07;;
9906;SDS011;4992;51.628;6.664;2023-12-20T01:34:31;29.33;;;9.63;;
9906;SDS011;4992;51.628;6.664;2023-12-20T01:36:57;21.00;;;9.53;;
9906;SDS011;4992;51.628;6.664;2023-12-20T01:39:22;22.03;;;9.93;;
9906;SDS011;4992;51.628;6.664;2023-12-20T01:41:48;29.43;;;10.60;;
9906;SDS011;4992;51.628;6.664;2023-12-20T01:44:13;29.90;;;10.47;;
9906;SDS011;4992;51.628;6.664;2023-12-20T01:46:39;23.97;;;10.80;;
9906;SDS011;4992;51.628;6.664;2023-12-20T01:49:05;24.50;;;11.10;;
9906;SDS011;4992;51.628;6.664;2023-12-20T01:51:31;29.03;;;10.20;;
9906;SDS011;4992;51.628;6.664;2023-12-20T01:53:58;25.87;;;10.20;;
9906;SDS011;4992;51.628;6.664;2023-12-20T01:56:25;26.47;;;9.20;;
9906;SDS011;4992;51.628;6.664;2023-12-20T01:58:52;29.10;;;9.43;;
9906;SDS011;4992;51.628;6.664;2023-12-20T02:01:19;20.63;;;8.73;;
9906;SDS011;4992;51.628;6.664;2023-12-20T02:03:45;20.43;;;8.33;;
9906;SDS011;4992;51.628;6.664;2023-12-20T02:06:11;23.97;;;8.70;;
9906;SDS011;4992;51.628;6.664;2023-12-20T02:08:37;25.17;;;8.17;;
9906;SDS011;4992;51.628;6.664;2023-12-20T02:11:02;21.93;;;7.67;;
9906;SDS011;4992;51.628;6.664;2023-12-20T02:13:28;28.80;;;7.93;;
9906;SDS011;4992;51.628;6.664;2023-12-20T02:15:56;21.00;;;7.83;;
9906;SDS011;4992;51.628;6.664;2023-12-20T02:18:22;19.80;;;7.57;;
9906;SDS011;4992;51.628;6.664;2023-12-20T02:20:48;25.13;;;8.20;;
9906;SDS011;4992;51.628;6.664;2023-12-20T02:23:13;21.80;;;9.33;;
9906;SDS011;4992;51.628;6.664;2023-12-20T02:25:39;19.73;;;8.90;;
9906;SDS011;4992;51.628;6.664;2023-12-20T02:28:04;25.83;;;9.67;;
9906;SDS011;4992;51.628;6.664;2023-12-20T02:30:31;21.97;;;10.30;;
9906;SDS011;4992;51.628;6.664;2023-12-20T02:32:57;24.13;;;10.90;;
9906;SDS011;4992;51.628;6.664;2023-12-20T02:38:47;23.17;;;10.57;;
9906;SDS011;4992;51.628;6.664;2023-12-20T02:41:13;28.60;;;11.50;;
9906;SDS011;4992;51.628;6.664;2023-12-20T02:43:40;25.43;;;11.57;;
9906;SDS011;4992;51.628;6.664;2023-12-20T02:46:06;28.80;;;11.27;;
9906;SDS011;4992;51.628;6.664;2023-12-20T02:48:31;25.67;;;11.43;;
9906;SDS011;4992;51.628;6.664;2023-12-20T02:50:57;29.17;;;12.17;;
9906;SDS011;4992;51.628;6.664;2023-12-20T02:53:22;33.90;;;12.17;;
9906;SDS011;4992;51.628;6.664;2023-12-20T02:55:48;29.37;;;11.70;;
9906;SDS011;4992;51.628;6.664;2023-12-20T02:58:13;35.13;;;11.37;;
9906;SDS011;4992;51.628;6.664;2023-12-20T03:00:39;24.70;;;9.97;;
9906;SDS011;4992;51.628;6.664;2023-12-20T03:03:04;25.70;;;10.20;;
9906;SDS011;4992;51.628;6.664;2023-12-20T03:05:30;27.07;;;9.90;;
9906;SDS011;4992;51.628;6.664;2023-12-20T03:07:56;29.13;;;9.80;;
9906;SDS011;4992;51.628;6.664;2023-12-20T03:10:21;24.10;;;8.87;;
9906;SDS011;4992;51.628;6.664;2023-12-20T03:12:47;23.37;;;9.67;;
9906;SDS011;4992;51.628;6.664;2023-12-20T03:15:12;29.57;;;9.80;;
9906;SDS011;4992;51.628;6.664;2023-12-20T03:17:38;25.40;;;9.30;;
9906;SDS011;4992;51.628;6.664;2023-12-20T03:20:04;20.00;;;8.37;;
9906;SDS011;4992;51.628;6.664;2023-12-20T03:22:29;25.97;;;8.63;;
9906;SDS011;4992;51.628;6.664;2023-12-20T03:24:55;21.63;;;8.17;;
9906;SDS011;4992;51.628;6.664;2023-12-20T03:27:20;25.07;;;7.80;;
9906;SDS011;4992;51.628;6.664;2023-12-20T03:29:46;26.30;;;8.37;;
9906;SDS011;4992;51.628;6.664;2023-12-20T03:32:11;26.83;;;7.97;;
9906;SDS011;4992;51.628;6.664;2023-12-20T03:34:37;20.90;;;7.70;;
9906;SDS011;4992;51.628;6.664;2023-12-20T03:37:03;23.80;;;7.03;;
9906;SDS011;4992;51.628;6.664;2023-12-20T03:39:28;22.27;;;7.13;;
9906;SDS011;4992;51.628;6.664;2023-12-20T03:41:54;19.00;;;6.63;;
9906;SDS011;4992;51.628;6.664;2023-12-20T03:44:19;23.47;;;6.33;;
9906;SDS011;4992;51.628;6.664;2023-12-20T03:46:45;19.50;;;5.70;;
9906;SDS011;4992;51.628;6.664;2023-12-20T03:49:10;23.77;;;6.37;;
9906;SDS011;4992;51.628;6.664;2023-12-20T03:51:36;23.90;;;5.90;;
9906;SDS011;4992;51.628;6.664;2023-12-20T03:54:02;23.77;;;5.77;;
9906;SDS011;4992;51.628;6.664;2023-12-20T03:56:28;19.00;;;5.30;;
9906;SDS011;4992;51.628;6.664;2023-12-20T03:58:53;19.47;;;6.00;;
9906;SDS011;4992;51.628;6.664;2023-12-20T04:01:19;25.80;;;5.93;;
9906;SDS011;4992;51.628;6.664;2023-12-20T04:03:44;23.37;;;6.40;;
9906;SDS011;4992;51.628;6.664;2023-12-20T04:06:10;17.83;;;5.80;;
9906;SDS011;4992;51.628;6.664;2023-12-20T04:08:41;16.90;;;5.13;;
9906;SDS011;4992;51.628;6.664;2023-12-20T04:11:06;22.67;;;5.10;;
9906;SDS011;4992;51.628;6.664;2023-12-20T04:13:31;17.97;;;5.77;;
9906;SDS011;4992;51.628;6.664;2023-12-20T04:15:57;27.30;;;6.00;;
9906;SDS011;4992;51.628;6.664;2023-12-20T04:18:22;23.33;;;5.03;;
9906;SDS011;4992;51.628;6.664;2023-12-20T04:20:48;19.83;;;5.37;;
9906;SDS011;4992;51.628;6.664;2023-12-20T04:23:14;23.07;;;5.83;;
9906;SDS011;4992;51.628;6.664;2023-12-20T04:25:40;12.50;;;5.30;;
9906;SDS011;4992;51.628;6.664;2023-12-20T04:28:05;20.63;;;5.47;;
9906;SDS011;4992;51.628;6.664;2023-12-20T04:30:31;27.53;;;6.50;;
9906;SDS011;4992;51.628;6.664;2023-12-20T04:32:56;13.23;;;4.63;;
9906;SDS011;4992;51.628;6.664;2023-12-20T04:35:22;24.00;;;6.07;;
9906;SDS011;4992;51.628;6.664;2023-12-20T04:37:47;21.20;;;5.70;;
9906;SDS011;4992;51.628;6.664;2023-12-20T04:40:14;23.73;;;5.90;;
9906;SDS011;4992;51.628;6.664;2023-12-20T04:42:40;21.50;;;5.07;;
9906;SDS011;4992;51.628;6.664;2023-12-20T04:45:05;28.60;;;4.90;;
9906;SDS011;4992;51.628;6.664;2023-12-20T04:47:31;21.27;;;5.97;;
9906;SDS011;4992;51.628;6.664;2023-12-20T04:49:57;14.37;;;5.33;;
9906;SDS011;4992;51.628;6.664;2023-12-20T04:52:22;27.50;;;6.67;;
9906;SDS011;4992;51.628;6.664;2023-12-20T04:54:48;24.93;;;5.70;;
9906;SDS011;4992;51.628;6.664;2023-12-20T04:57:13;20.37;;;5.63;;
9906;SDS011;4992;51.628;6.664;2023-12-20T04:59:39;17.67;;;6.67;;
9906;SDS011;4992;51.628;6.664;2023-12-20T05:02:04;24.70;;;5.70;;
9906;SDS011;4992;51.628;6.664;2023-12-20T05:04:30;26.53;;;6.27;;
9906;SDS011;4992;51.628;6.664;2023-12-20T05:06:55;26.13;;;6.83;;
9906;SDS011;4992;51.628;6.664;2023-12-20T05:09:21;30.03;;;6.53;;
9906;SDS011;4992;51.628;6.664;2023-12-20T05:11:46;29.13;;;6.13;;
9906;SDS011;4992;51.628;6.664;2023-12-20T05:14:12;21.57;;;5.83;;
9906;SDS011;4992;51.628;6.664;2023-12-20T05:16:37;21.17;;;5.87;;
9906;SDS011;4992;51.628;6.664;2023-12-20T05:19:03;20.90;;;5.87;;
9906;SDS011;4992;51.628;6.664;2023-12-20T05:21:31;23.70;;;7.40;;
9906;SDS011;4992;51.628;6.664;2023-12-20T05:23:57;25.43;;;6.60;;
9906;SDS011;4992;51.628;6.664;2023-12-20T05:26:22;24.00;;;6.73;;
9906;SDS011;4992;51.628;6.664;2023-12-20T05:28:48;27.70;;;6.73;;
9906;SDS011;4992;51.628;6.664;2023-12-20T05:31:13;26.67;;;6.97;;
9906;SDS011;4992;51.628;6.664;2023-12-20T05:33:39;25.30;;;7.97;;
9906;SDS011;4992;51.628;6.664;2023-12-20T05:36:04;28.40;;;7.73;;
9906;SDS011;4992;51.628;6.664;2023-12-20T05:38:30;25.03;;;9.07;;
9906;SDS011;4992;51.628;6.664;2023-12-20T05:40:56;29.20;;;8.53;;
9906;SDS011;4992;51.628;6.664;2023-12-20T05:43:21;27.50;;;8.37;;
9906;SDS011;4992;51.628;6.664;2023-12-20T05:45:47;23.17;;;8.13;;
9906;SDS011;4992;51.628;6.664;2023-12-20T05:48:12;29.67;;;8.97;;
9906;SDS011;4992;51.628;6.664;2023-12-20T05:50:38;29.93;;;8.60;;
9906;SDS011;4992;51.628;6.664;2023-12-20T05:53:04;27.53;;;8.00;;
9906;SDS011;4992;51.628;6.664;2023-12-20T05:55:30;31.17;;;8.80;;
9906;SDS011;4992;51.628;6.664;2023-12-20T05:57:55;29.13;;;8.93;;
9906;SDS011;4992;51.628;6.664;2023-12-20T06:00:21;19.93;;;7.67;;
9906;SDS011;4992;51.628;6.664;2023-12-20T06:02:46;24.93;;;7.63;;
9906;SDS011;4992;51.628;6.664;2023-12-20T06:05:12;31.00;;;7.80;;
9906;SDS011;4992;51.628;6.664;2023-12-20T06:07:37;24.33;;;8.63;;
9906;SDS011;4992;51.628;6.664;2023-12-20T06:10:03;24.93;;;8.30;;
9906;SDS011;4992;51.628;6.664;2023-12-20T06:12:28;28.83;;;9.40;;
9906;SDS011;4992;51.628;6.664;2023-12-20T06:14:57;28.70;;;9.13;;
9906;SDS011;4992;51.628;6.664;2023-12-20T06:17:22;29.07;;;9.93;;
9906;SDS011;4992;51.628;6.664;2023-12-20T06:19:48;28.20;;;11.27;;
9906;SDS011;4992;51.628;6.664;2023-12-20T06:22:14;28.63;;;10.13;;
9906;SDS011;4992;51.628;6.664;2023-12-20T06:24:40;22.37;;;8.37;;
9906;SDS011;4992;51.628;6.664;2023-12-20T06:27:05;21.90;;;8.33;;
9906;SDS011;4992;51.628;6.664;2023-12-20T06:29:31;29.90;;;8.80;;
9906;SDS011;4992;51.628;6.664;2023-12-20T06:31:56;31.30;;;9.30;;
9906;SDS011;4992;51.628;6.664;2023-12-20T06:34:22;24.20;;;8.13;;
9906;SDS011;4992;51.628;6.664;2023-12-20T06:36:48;23.00;;;8.13;;
9906;SDS011;4992;51.628;6.664;2023-12-20T06:39:13;20.63;;;8.43;;
9906;SDS011;4992;51.628;6.664;2023-12-20T06:41:39;30.50;;;8.73;;
9906;SDS011;4992;51.628;6.664;2023-12-20T06:44:04;23.10;;;8.23;;
9906;SDS011;4992;51.628;6.664;2023-12-20T06:46:30;29.20;;;7.27;;
9906;SDS011;4992;51.628;6.664;2023-12-20T06:48:56;23.83;;;8.17;;
9906;SDS011;4992;51.628;6.664;2023-12-20T06:51:21;20.47;;;7.00;;
9906;SDS011;4992;51.628;6.664;2023-12-20T06:53:50;29.73;;;8.00;;
9906;SDS011;4992;51.628;6.664;2023-12-20T06:56:16;25.90;;;7.63;;
9906;SDS011;4992;51.628;6.664;2023-12-20T06:58:41;22.87;;;6.70;;
9906;SDS011;4992;51.628;6.664;2023-12-20T07:01:10;27.00;;;7.03;;
9906;SDS011;4992;51.628;6.664;2023-12-20T07:03:40;21.17;;;7.30;;
9906;SDS011;4992;51.628;6.664;2023-12-20T07:06:05;24.70;;;6.70;;
9906;SDS011;4992;51.628;6.664;2023-12-20T07:08:31;21.20;;;6.43;;
9906;SDS011;4992;51.628;6.664;2023-12-20T07:10:57;28.90;;;8.13;;
9906;SDS011;4992;51.628;6.664;2023-12-20T07:13:23;24.60;;;9.77;;
9906;SDS011;4992;51.628;6.664;2023-12-20T07:15:49;23.70;;;6.40;;
9906;SDS011;4992;51.628;6.664;2023-12-20T07:18:14;24.97;;;7.03;;
9906;SDS011;4992;51.628;6.664;2023-12-20T07:20:40;22.13;;;5.73;;
9906;SDS011;4992;51.628;6.664;2023-12-20T07:23:05;21.13;;;6.03;;
9906;SDS011;4992;51.628;6.664;2023-12-20T07:25:31;26.07;;;6.50;;
9906;SDS011;4992;51.628;6.664;2023-12-20T07:27:57;23.00;;;6.60;;
9906;SDS011;4992;51.628;6.664;2023-12-20T07:30:23;20.17;;;6.47;;
9906;SDS011;4992;51.628;6.664;2023-12-20T07:32:48;20.87;;;5.93;;
9906;SDS011;4992;51.628;6.664;2023-12-20T07:35:17;18.47;;;6.00;;
9906;SDS011;4992;51.628;6.664;2023-12-20T07:37:43;16.70;;;6.00;;
9906;SDS011;4992;51.628;6.664;2023-12-20T07:40:09;20.37;;;5.97;;
9906;SDS011;4992;51.628;6.664;2023-12-20T07:42:35;19.97;;;6.40;;
9906;SDS011;4992;51.628;6.664;2023-12-20T07:45:00;24.63;;;5.70;;
9906;SDS011;4992;51.628;6.664;2023-12-20T07:47:26;25.30;;;6.87;;
9906;SDS011;4992;51.628;6.664;2023-12-20T07:49:51;22.03;;;6.00;;
9906;SDS011;4992;51.628;6.664;2023-12-20T07:52:17;21.57;;;6.47;;
9906;SDS011;4992;51.628;6.664;2023-12-20T07:54:44;16.67;;;6.00;;
9906;SDS011;4992;51.628;6.664;2023-12-20T07:57:10;20.27;;;6.23;;
9906;SDS011;4992;51.628;6.664;2023-12-20T07:59:36;21.47;;;6.00;;
9906;SDS011;4992;51.628;6.664;2023-12-20T08:02:01;19.07;;;6.30;;
9906;SDS011;4992;51.628;6.664;2023-12-20T08:04:27;21.67;;;6.47;;
9906;SDS011;4992;51.628;6.664;2023-12-20T08:06:53;20.80;;;5.80;;
9906;SDS011;4992;51.628;6.664;2023-12-20T08:09:18;20.40;;;6.37;;
9906;SDS011;4992;51.628;6.664;2023-12-20T08:11:47;19.97;;;5.83;;
9906;SDS011;4992;51.628;6.664;2023-12-20T08:14:13;17.50;;;6.10;;
9906;SDS011;4992;51.628;6.664;2023-12-20T08:16:39;21.43;;;6.10;;
9906;SDS011;4992;51.628;6.664;2023-12-20T08:19:05;24.33;;;6.87;;
9906;SDS011;4992;51.628;6.664;2023-12-20T08:21:30;15.77;;;5.07;;
9906;SDS011;4992;51.628;6.664;2023-12-20T08:23:56;16.53;;;5.63;;
9906;SDS011;4992;51.628;6.664;2023-12-20T08:26:21;23.93;;;10.63;;
9906;SDS011;4992;51.628;6.664;2023-12-20T08:28:49;19.37;;;4.73;;
9906;SDS011;4992;51.628;6.664;2023-12-20T08:31:15;15.47;;;5.33;;
9906;SDS011;4992;51.628;6.664;2023-12-20T08:33:42;16.60;;;5.60;;
9906;SDS011;4992;51.628;6.664;2023-12-20T08:36:09;21.87;;;5.53;;
9906;SDS011;4992;51.628;6.664;2023-12-20T08:38:34;17.10;;;5.40;;
9906;SDS011;4992;51.628;6.664;2023-12-20T08:41:00;17.37;;;5.40;;
9906;SDS011;4992;51.628;6.664;2023-12-20T08:43:26;17.13;;;5.77;;
9906;SDS011;4992;51.628;6.664;2023-12-20T08:45:51;14.50;;;4.97;;
9906;SDS011;4992;51.628;6.664;2023-12-20T08:48:17;16.80;;;5.90;;
9906;SDS011;4992;51.628;6.664;2023-12-20T08:50:42;12.60;;;5.33;;
9906;SDS011;4992;51.628;6.664;2023-12-20T08:53:08;13.23;;;4.10;;
9906;SDS011;4992;51.628;6.664;2023-12-20T08:55:34;25.43;;;5.37;;
9906;SDS011;4992;51.628;6.664;2023-12-20T08:57:59;13.60;;;3.77;;
9906;SDS011;4992;51.628;6.664;2023-12-20T09:00:25;13.50;;;3.80;;
9906;SDS011;4992;51.628;6.664;2023-12-20T09:02:52;18.07;;;4.47;;
9906;SDS011;4992;51.628;6.664;2023-12-20T09:05:19;14.53;;;4.00;;
9906;SDS011;4992;51.628;6.664;2023-12-20T09:07:45;15.23;;;4.40;;
9906;SDS011;4992;51.628;6.664;2023-12-20T09:10:10;15.60;;;3.97;;
9906;SDS011;4992;51.628;6.664;2023-12-20T09:12:36;18.00;;;4.43;;
9906;SDS011;4992;51.628;6.664;2023-12-20T09:15:04;17.37;;;4.33;;
9906;SDS011;4992;51.628;6.664;2023-12-20T09:17:30;14.43;;;4.00;;
9906;SDS011;4992;51.628;6.664;2023-12-20T09:19:56;16.27;;;4.33;;
9906;SDS011;4992;51.628;6.664;2023-12-20T09:22:21;16.03;;;3.87;;
9906;SDS011;4992;51.628;6.664;2023-12-20T09:24:47;19.17;;;4.20;;
9906;SDS011;4992;51.628;6.664;2023-12-20T09:27:12;12.70;;;4.40;;
9906;SDS011;4992;51.628;6.664;2023-12-20T09:29:38;18.13;;;4.40;;
9906;SDS011;4992;51.628;6.664;2023-12-20T09:32:03;14.17;;;3.83;;
9906;SDS011;4992;51.628;6.664;2023-12-20T09:34:29;14.63;;;3.87;;
9906;SDS011;4992;51.628;6.664;2023-12-20T09:36:55;16.50;;;4.53;;
9906;SDS011;4992;51.628;6.664;2023-12-20T09:39:20;15.43;;;4.23;;
9906;SDS011;4992;51.628;6.664;2023-12-20T09:41:49;16.77;;;4.73;;
9906;SDS011;4992;51.628;6.664;2023-12-20T09:44:24;19.30;;;6.80;;
9906;SDS011;4992;51.628;6.664;2023-12-20T09:46:50;13.00;;;4.33;;
9906;SDS011;4992;51.628;6.664;2023-12-20T09:49:18;16.73;;;4.37;;
9906;SDS011;4992;51.628;6.664;2023-12-20T09:51:45;18.40;;;4.03;;
9906;SDS011;4992;51.628;6.664;2023-12-20T09:54:12;13.60;;;3.97;;
9906;SDS011;4992;51.628;6.664;2023-12-20T09:56:45;16.07;;;4.07;;
9906;SDS011;4992;51.628;6.664;2023-12-20T09:59:11;15.13;;;4.90;;
9906;SDS011;4992;51.628;6.664;2023-12-20T10:01:38;16.20;;;3.93;;
9906;SDS011;4992;51.628;6.664;2023-12-20T10:04:05;16.30;;;4.00;;
9906;SDS011;4992;51.628;6.664;2023-12-20T10:06:34;19.57;;;5.23;;
9906;SDS011;4992;51.628;6.664;2023-12-20T10:09:01;20.07;;;4.00;;
9906;SDS011;4992;51.628;6.664;2023-12-20T10:11:27;21.17;;;4.97;;
9906;SDS011;4992;51.628;6.664;2023-12-20T10:13:58;13.30;;;4.60;;
9906;SDS011;4992;51.628;6.664;2023-12-20T10:16:25;15.23;;;4.37;;
9906;SDS011;4992;51.628;6.664;2023-12-20T10:18:51;17.60;;;5.00;;
9906;SDS011;4992;51.628;6.664;2023-12-20T10:21:18;14.90;;;4.67;;
9906;SDS011;4992;51.628;6.664;2023-12-20T10:23:43;15.70;;;4.10;;
9906;SDS011;4992;51.628;6.664;2023-12-20T10:26:10;17.83;;;4.63;;
9906;SDS011;4992;51.628;6.664;2023-12-20T10:28:45;17.33;;;3.93;;
9906;SDS011;4992;51.628;6.664;2023-12-20T10:31:10;18.30;;;4.87;;
9906;SDS011;4992;51.628;6.664;2023-12-20T10:33:50;19.37;;;4.47;;
9906;SDS011;4992;51.628;6.664;2023-12-20T10:36:15;12.43;;;4.23;;
9906;SDS011;4992;51.628;6.664;2023-12-20T10:38:41;15.63;;;4.63;;
9906;SDS011;4992;51.628;6.664;2023-12-20T10:41:07;16.70;;;4.20;;
9906;SDS011;4992;51.628;6.664;2023-12-20T10:43:34;14.37;;;4.30;;
9906;SDS011;4992;51.628;6.664;2023-12-20T10:46:02;12.77;;;4.47;;
9906;SDS011;4992;51.628;6.664;2023-12-20T10:48:28;14.80;;;4.13;;
9906;SDS011;4992;51.628;6.664;2023-12-20T10:50:56;18.13;;;4.67;;
9906;SDS011;4992;51.628;6.664;2023-12-20T10:53:23;10.87;;;3.40;;
9906;SDS011;4992;51.628;6.664;2023-12-20T10:55:50;19.73;;;5.27;;
9906;SDS011;4992;51.628;6.664;2023-12-20T10:58:19;14.80;;;4.43;;
9906;SDS011;4992;51.628;6.664;2023-12-20T11:00:47;12.87;;;4.00;;
9906;SDS011;4992;51.628;6.664;2023-12-20T11:03:15;16.48;;;5.10;;
9906;SDS011;4992;51.628;6.664;2023-12-20T11:05:49;13.93;;;4.90;;
9906;SDS011;4992;51.628;6.664;2023-12-20T11:08:28;17.47;;;4.40;;
9906;SDS011;4992;51.628;6.664;2023-12-20T11:11:03;13.37;;;3.83;;
9906;SDS011;4992;51.628;6.664;2023-12-20T11:14:03;14.47;;;4.10;;
9906;SDS011;4992;51.628;6.664;2023-12-20T11:16:36;17.27;;;4.30;;
9906;SDS011;4992;51.628;6.664;2023-12-20T11:19:05;16.00;;;4.80;;
9906;SDS011;4992;51.628;6.664;2023-12-20T11:21:31;19.77;;;4.67;;
9906;SDS011;4992;51.628;6.664;2023-12-20T11:23:56;11.87;;;4.23;;
9906;SDS011;4992;51.628;6.664;2023-12-20T11:26:22;13.80;;;4.90;;
9906;SDS011;4992;51.628;6.664;2023-12-20T11:28:52;12.60;;;4.37;;
9906;SDS011;4992;51.628;6.664;2023-12-20T11:31:18;14.70;;;5.30;;
9906;SDS011;4992;51.628;6.664;2023-12-20T11:33:44;15.77;;;5.10;;
9906;SDS011;4992;51.628;6.664;2023-12-20T11:36:13;18.00;;;4.90;;
9906;SDS011;4992;51.628;6.664;2023-12-20T11:38:49;13.90;;;4.27;;
9906;SDS011;4992;51.628;6.664;2023-12-20T11:41:22;14.10;;;4.43;;
9906;SDS011;4992;51.628;6.664;2023-12-20T11:43:49;15.33;;;4.60;;
9906;SDS011;4992;51.628;6.664;2023-12-20T11:46:18;19.87;;;6.00;;
9906;SDS011;4992;51.628;6.664;2023-12-20T11:48:44;18.73;;;4.80;;
9906;SDS011;4992;51.628;6.664;2023-12-20T11:51:11;20.13;;;5.87;;
9906;SDS011;4992;51.628;6.664;2023-12-20T11:53:37;13.90;;;5.00;;
9906;SDS011;4992;51.628;6.664;2023-12-20T11:56:04;20.00;;;5.37;;
9906;SDS011;4992;51.628;6.664;2023-12-20T11:58:33;13.90;;;4.83;;
9906;SDS011;4992;51.628;6.664;2023-12-20T12:00:59;14.77;;;5.07;;
9906;SDS011;4992;51.628;6.664;2023-12-20T12:03:24;24.13;;;7.00;;
9906;SDS011;4992;51.628;6.664;2023-12-20T12:05:50;18.63;;;5.50;;
9906;SDS011;4992;51.628;6.664;2023-12-20T12:08:19;20.87;;;6.57;;
9906;SDS011;4992;51.628;6.664;2023-12-20T12:10:44;16.87;;;5.67;;
9906;SDS011;4992;51.628;6.664;2023-12-20T12:13:10;20.07;;;5.97;;
9906;SDS011;4992;51.628;6.664;2023-12-20T12:15:36;21.43;;;6.30;;
9906;SDS011;4992;51.628;6.664;2023-12-20T12:18:02;14.07;;;5.57;;
9906;SDS011;4992;51.628;6.664;2023-12-20T12:20:29;14.50;;;5.27;;
9906;SDS011;4992;51.628;6.664;2023-12-20T12:23:01;16.53;;;5.60;;
9906;SDS011;4992;51.628;6.664;2023-12-20T12:25:28;15.33;;;5.87;;
9906;SDS011;4992;51.628;6.664;2023-12-20T12:27:55;12.27;;;4.20;;
9906;SDS011;4992;51.628;6.664;2023-12-20T12:30:22;20.67;;;5.47;;
9906;SDS011;4992;51.628;6.664;2023-12-20T12:32:48;17.07;;;5.13;;
9906;SDS011;4992;51.628;6.664;2023-12-20T12:35:13;18.07;;;5.17;;
9906;SDS011;4992;51.628;6.664;2023-12-20T12:37:40;14.30;;;4.67;;
9906;SDS011;4992;51.628;6.664;2023-12-20T12:40:06;15.07;;;4.83;;
9906;SDS011;4992;51.628;6.664;2023-12-20T12:42:36;17.97;;;5.27;;
9906;SDS011;4992;51.628;6.664;2023-12-20T12:45:06;13.77;;;5.17;;
9906;SDS011;4992;51.628;6.664;2023-12-20T12:47:31;17.27;;;5.70;;
9906;SDS011;4992;51.628;6.664;2023-12-20T12:49:58;10.93;;;4.97;;
9906;SDS011;4992;51.628;6.664;2023-12-20T12:52:23;12.00;;;4.77;;
9906;SDS011;4992;51.628;6.664;2023-12-20T12:54:49;12.87;;;4.83;;
9906;SDS011;4992;51.628;6.664;2023-12-20T12:57:15;16.37;;;5.10;;
9906;SDS011;4992;51.628;6.664;2023-12-20T12:59:43;13.40;;;4.47;;
9906;SDS011;4992;51.628;6.664;2023-12-20T13:02:11;15.40;;;4.80;;
9906;SDS011;4992;51.628;6.664;2023-12-20T13:04:42;13.00;;;4.57;;
9906;SDS011;4992;51.628;6.664;2023-12-20T13:07:08;16.83;;;5.10;;
9906;SDS011;4992;51.628;6.664;2023-12-20T13:09:38;15.27;;;4.50;;
9906;SDS011;4992;51.628;6.664;2023-12-20T13:12:05;16.87;;;4.97;;
9906;SDS011;4992;51.628;6.664;2023-12-20T13:14:34;15.80;;;5.17;;
9906;SDS011;4992;51.628;6.664;2023-12-20T13:17:02;13.60;;;4.53;;
9906;SDS011;4992;51.628;6.664;2023-12-20T13:19:28;11.23;;;4.90;;
9906;SDS011;4992;51.628;6.664;2023-12-20T13:21:55;16.30;;;5.20;;
9906;SDS011;4992;51.628;6.664;2023-12-20T13:24:20;17.00;;;5.63;;
9906;SDS011;4992;51.628;6.664;2023-12-20T13:26:46;13.67;;;5.20;;
9906;SDS011;4992;51.628;6.664;2023-12-20T13:29:12;15.80;;;5.67;;
9906;SDS011;4992;51.628;6.664;2023-12-20T13:31:37;17.63;;;5.40;;
9906;SDS011;4992;51.628;6.664;2023-12-20T13:34:04;12.90;;;5.63;;
9906;SDS011;4992;51.628;6.664;2023-12-20T13:36:31;16.53;;;5.87;;
9906;SDS011;4992;51.628;6.664;2023-12-20T13:38:56;16.60;;;5.83;;
9906;SDS011;4992;51.628;6.664;2023-12-20T13:41:22;12.73;;;5.47;;
9906;SDS011;4992;51.628;6.664;2023-12-20T13:43:48;16.70;;;5.90;;
9906;SDS011;4992;51.628;6.664;2023-12-20T13:46:13;13.53;;;5.40;;
9906;SDS011;4992;51.628;6.664;2023-12-20T13:48:39;17.23;;;5.70;;
9906;SDS011;4992;51.628;6.664;2023-12-20T13:51:05;15.83;;;5.47;;
9906;SDS011;4992;51.628;6.664;2023-12-20T13:53:31;16.37;;;6.57;;
9906;SDS011;4992;51.628;6.664;2023-12-20T13:55:57;14.40;;;5.90;;
9906;SDS011;4992;51.628;6.664;2023-12-20T13:58:23;13.87;;;6.63;;
9906;SDS011;4992;51.628;6.664;2023-12-20T14:00:48;16.47;;;5.97;;
9906;SDS011;4992;51.628;6.664;2023-12-20T14:03:14;15.90;;;6.72;;
9906;SDS011;4992;51.628;6.664;2023-12-20T14:05:40;20.57;;;6.80;;
9906;SDS011;4992;51.628;6.664;2023-12-20T14:08:06;19.53;;;6.50;;
9906;SDS011;4992;51.628;6.664;2023-12-20T14:10:32;15.73;;;6.13;;
9906;SDS011;4992;51.628;6.664;2023-12-20T14:12:57;14.33;;;5.97;;
9906;SDS011;4992;51.628;6.664;2023-12-20T14:15:23;15.73;;;6.97;;
9906;SDS011;4992;51.628;6.664;2023-12-20T14:17:50;18.27;;;6.80;;
9906;SDS011;4992;51.628;6.664;2023-12-20T14:20:16;18.90;;;6.70;;
9906;SDS011;4992;51.628;6.664;2023-12-20T14:22:41;14.57;;;6.07;;
9906;SDS011;4992;51.628;6.664;2023-12-20T14:25:11;17.97;;;7.20;;
9906;SDS011;4992;51.628;6.664;2023-12-20T14:27:40;18.17;;;7.40;;
9906;SDS011;4992;51.628;6.664;2023-12-20T14:30:08;12.87;;;6.63;;
9906;SDS011;4992;51.628;6.664;2023-12-20T14:32:34;17.03;;;6.90;;
9906;SDS011;4992;51.628;6.664;2023-12-20T14:35:03;16.80;;;7.03;;
9906;SDS011;4992;51.628;6.664;2023-12-20T14:37:33;16.70;;;7.50;;
9906;SDS011;4992;51.628;6.664;2023-12-20T14:39:59;20.87;;;7.13;;
9906;SDS011;4992;51.628;6.664;2023-12-20T14:42:24;21.20;;;7.93;;
9906;SDS011;4992;51.628;6.664;2023-12-20T14:44:50;21.53;;;7.73;;
9906;SDS011;4992;51.628;6.664;2023-12-20T14:47:17;17.80;;;7.60;;
9906;SDS011;4992;51.628;6.664;2023-12-20T14:49:42;18.40;;;8.33;;
9906;SDS011;4992;51.628;6.664;2023-12-20T14:52:08;16.93;;;7.67;;
9906;SDS011;4992;51.628;6.664;2023-12-20T14:54:37;18.20;;;8.10;;
9906;SDS011;4992;51.628;6.664;2023-12-20T14:57:02;16.23;;;7.70;;
9906;SDS011;4992;51.628;6.664;2023-12-20T14:59:28;16.00;;;7.97;;